Time;durP1;ratioP1;P1;durP2;ratioP2;P2;SDS_P1;SDS_P2;PMS_P1;PMS_P2;Temp;Humidity;BMP_temperature;BMP_pressure;BME280_temperature;BME280_humidity;BME280_pressure;Samples;Min_cycle;Max_cycle;Signal;HPM_P1;HPM_P2
2023/01/08 00:01:39;;;;;;;;;;;12.00;99.90;;;;;;5033605;28;20007;-79
2023/01/08 00:04:05;;;;;;;;;;;12.00;99.90;;;;;;5033576;28;19909;-79
2023/01/08 00:06:30;;;;;;;;;;;12.00;99.90;;;;;;5032191;28;19928;-80
2023/01/08 00:08:56;;;;;;;;;;;11.90;99.90;;;;;;5033518;28;19933;-79
2023/01/08 00:11:21;;;;;;;;;;;11.90;99.90;;;;;;5032482;28;19932;-79
2023/01/08 00:13:47;;;;;;;;;;;11.90;99.90;;;;;;5032272;28;19989;-80
2023/01/08 00:16:14;;;;;;;;;;;11.80;99.90;;;;;;5033586;28;19909;-79
2023/01/08 00:18:40;;;;;;;;;;;11.70;99.90;;;;;;5032258;28;19909;-79
2023/01/08 00:21:08;;;;;;;;;;;11.70;99.90;;;;;;5032103;28;20286;-80
2023/01/08 00:23:34;;;;;;;;;;;11.60;99.90;;;;;;5033540;28;20366;-80
2023/01/08 00:26:00;;;;;;;;;;;11.60;99.90;;;;;;5032237;28;19909;-80
2023/01/08 00:28:25;;;;;;;;;;;11.50;99.90;;;;;;5032219;28;19932;-80
2023/01/08 00:30:51;;;;;;;;;;;11.50;99.90;;;;;;5032653;28;19909;-82
2023/01/08 00:33:16;;;;;;;;;;;11.50;99.90;;;;;;5033552;28;20390;-79
2023/01/08 00:35:42;;;;;;;;;;;11.40;99.90;;;;;;5032097;28;19909;-79
2023/01/08 00:38:07;;;;;;;;;;;11.40;99.90;;;;;;5035794;28;19910;-79
2023/01/08 00:40:34;;;;;;;;;;;11.40;99.90;;;;;;5036214;28;19909;-79
2023/01/08 00:42:59;;;;;;;;;;;11.40;99.90;;;;;;5037060;28;19912;-79
2023/01/08 00:45:25;;;;;;;;;;;11.40;99.90;;;;;;5037934;28;20007;-79
2023/01/08 00:47:50;;;;;;;;;;;11.40;99.90;;;;;;5035976;28;19921;-79
2023/01/08 00:50:16;;;;;;;;;;;11.40;99.90;;;;;;5035871;28;20405;-80
2023/01/08 00:52:41;;;;;;;;;;;11.40;99.90;;;;;;5037264;28;20004;-79
2023/01/08 00:55:07;;;;;;;;;;;11.40;99.90;;;;;;5037516;28;20005;-80
2023/01/08 00:57:36;;;;;;;;;;;11.50;99.90;;;;;;5037376;28;19909;-79
2023/01/08 01:00:02;;;;;;;;;;;11.50;99.90;;;;;;5037217;28;20019;-79
2023/01/08 01:02:28;;;;;;;;;;;11.60;99.90;;;;;;5035527;28;20432;-79
2023/01/08 01:04:53;;;;;;;;;;;11.60;99.90;;;;;;5035965;28;20011;-79
2023/01/08 01:07:19;;;;;;;;;;;11.70;99.90;;;;;;5037310;28;19967;-79
2023/01/08 01:09:44;;;;;;;;;;;11.70;99.90;;;;;;5036802;28;20000;-79
2023/01/08 01:12:10;;;;;;;;;;;11.80;99.90;;;;;;5036799;28;19909;-79
2023/01/08 01:14:36;;;;;;;;;;;11.80;99.90;;;;;;5035861;28;20317;-80
2023/01/08 01:17:02;;;;;;;;;;;11.80;99.90;;;;;;5036877;28;20385;-79
2023/01/08 01:19:28;;;;;;;;;;;11.80;99.90;;;;;;5035715;28;19911;-80
2023/01/08 01:21:53;;;;;;;;;;;11.80;99.90;;;;;;5036457;28;19952;-79
2023/01/08 01:24:20;;;;;;;;;;;11.80;99.90;;;;;;5036780;28;20264;-79
2023/01/08 01:26:46;;;;;;;;;;;11.80;99.90;;;;;;5036817;28;19963;-79
2023/01/08 01:29:11;;;;;;;;;;;11.80;99.90;;;;;;5036628;28;20287;-79
2023/01/08 01:31:37;;;;;;;;;;;11.80;99.90;;;;;;5036096;28;19909;-79
2023/01/08 01:34:02;;;;;;;;;;;11.80;99.90;;;;;;5036373;28;19910;-79
2023/01/08 01:36:28;;;;;;;;;;;11.90;99.90;;;;;;5036992;28;19916;-79
2023/01/08 01:38:54;;;;;;;;;;;11.90;99.90;;;;;;5035142;28;19909;-80
2023/01/08 01:41:27;;;;;;;;;;;11.80;99.90;;;;;;5036269;28;19986;-79
2023/01/08 01:43:54;;;;;;;;;;;11.80;99.90;;;;;;5034834;28;19988;-79
2023/01/08 01:46:23;;;;;;;;;;;11.80;99.90;;;;;;5036471;28;20416;-79
2023/01/08 01:48:50;;;;;;;;;;;11.80;99.90;;;;;;5034871;28;19909;-79
2023/01/08 01:51:15;;;;;;;;;;;11.70;99.90;;;;;;5034731;28;20562;-79
2023/01/08 01:53:41;;;;;;;;;;;11.80;99.90;;;;;;5034648;28;19945;-79
2023/01/08 01:56:07;;;;;;;;;;;11.80;99.90;;;;;;5034871;28;19948;-79
2023/01/08 01:58:32;;;;;;;;;;;11.70;99.90;;;;;;5035080;28;20363;-80
2023/01/08 02:01:01;;;;;;;;;;;11.70;99.90;;;;;;5035887;28;19924;-80
2023/01/08 02:03:29;;;;;;;;;;;11.80;99.90;;;;;;5035127;28;19913;-79
2023/01/08 02:06:13;;;;;;;;;;;11.80;99.90;;;;;;5034765;28;19909;-80
2023/01/08 02:08:59;;;;;;;;;;;11.80;99.90;;;;;;5035960;28;19909;-79
2023/01/08 02:11:27;;;;;;;;;;;11.90;99.90;;;;;;5034290;28;19928;-80
2023/01/08 02:14:11;;;;;;;;;;;11.80;99.90;;;;;;5035871;28;20389;-79
2023/01/08 02:16:53;;;;;;;;;;;11.80;99.90;;;;;;5034542;28;19949;-79
2023/01/08 02:19:42;;;;;;;;;;;11.70;99.90;;;;;;5035575;28;19909;-79
2023/01/08 02:22:12;;;;;;;;;;;11.60;99.90;;;;;;5027043;28;19937;-79
2023/01/08 02:24:40;;;;;;;;;;;11.50;99.90;;;;;;5035679;28;19915;-79
2023/01/08 02:27:07;;;;;;;;;;;11.40;99.90;;;;;;5035379;28;20374;-79
2023/01/08 02:29:32;;;;;;;;;;;11.40;99.90;;;;;;5035609;28;19909;-79
2023/01/08 02:31:58;;;;;;;;;;;11.40;99.90;;;;;;5035348;28;19959;-79
2023/01/08 02:34:23;;;;;;;;;;;11.40;99.90;;;;;;5035527;28;19917;-79
2023/01/08 02:36:53;;;;;;;;;;;11.30;99.90;;;;;;5035313;28;19913;-80
2023/01/08 02:39:38;;;;;;;;;;;11.30;99.90;;;;;;5034120;28;19916;-81
2023/01/08 02:42:22;;;;;;;;;;;11.30;99.90;;;;;;5035044;28;19970;-79
2023/01/08 02:44:47;;;;;;;;;;;11.20;99.90;;;;;;5035447;28;19932;-80
2023/01/08 02:47:20;;;;;;;;;;;11.20;99.90;;;;;;5035260;28;19913;-81
2023/01/08 02:49:45;;;;;;;;;;;11.20;99.90;;;;;;5035266;28;19917;-80
2023/01/08 02:52:12;;;;;;;;;;;11.20;99.90;;;;;;5034941;28;19913;-79
2023/01/08 02:54:38;;;;;;;;;;;11.20;99.90;;;;;;5035274;28;19909;-81
2023/01/08 02:57:09;;;;;;;;;;;11.20;99.90;;;;;;5035165;28;19910;-79
2023/01/08 02:59:36;;;;;;;;;;;11.20;99.90;;;;;;5033187;28;19913;-79
2023/01/08 03:02:02;;;;;;;;;;;11.10;99.90;;;;;;5034657;28;19916;-79
2023/01/08 03:04:30;;;;;;;;;;;11.20;99.90;;;;;;5035237;28;19909;-80
2023/01/08 03:06:55;;;;;;;;;;;11.20;99.90;;;;;;5034795;28;20552;-79
2023/01/08 03:09:21;;;;;;;;;;;11.20;99.90;;;;;;5033422;28;19909;-79
2023/01/08 03:11:53;;;;;;;;;;;11.20;99.90;;;;;;5034533;28;19916;-80
2023/01/08 03:14:27;;;;;;;;;;;11.30;99.90;;;;;;5034708;28;19909;-79
2023/01/08 03:17:07;;;;;;;;;;;11.30;99.90;;;;;;5033477;28;19963;-79
2023/01/08 03:19:56;;;;;;;;;;;11.30;99.90;;;;;;5034550;28;19991;-79
2023/01/08 03:22:22;;;;;;;;;;;11.30;99.90;;;;;;5025973;28;19916;-79
2023/01/08 03:24:49;;;;;;;;;;;11.30;99.90;;;;;;5033130;28;19916;-79
2023/01/08 03:27:17;;;;;;;;;;;11.30;99.90;;;;;;5032976;28;19913;-79
2023/01/08 03:29:42;;;;;;;;;;;11.30;99.90;;;;;;5034647;28;19983;-80
2023/01/08 03:32:10;;;;;;;;;;;11.20;99.90;;;;;;5032668;28;19913;-79
2023/01/08 03:34:37;;;;;;;;;;;11.20;99.90;;;;;;5034430;28;19916;-79
2023/01/08 03:37:06;;;;;;;;;;;11.20;99.90;;;;;;5032963;28;19909;-80
2023/01/08 03:39:36;;;;;;;;;;;11.20;99.90;;;;;;5032833;28;19956;-79
2023/01/08 03:42:09;;;;;;;;;;;11.20;99.90;;;;;;5033866;28;19917;-79
2023/01/08 03:44:34;;;;;;;;;;;11.20;99.90;;;;;;5032898;28;19909;-80
2023/01/08 03:47:01;;;;;;;;;;;11.20;99.90;;;;;;5032779;28;19924;-79
2023/01/08 03:49:28;;;;;;;;;;;11.20;99.90;;;;;;5034025;28;19931;-80
2023/01/08 03:51:53;;;;;;;;;;;11.20;99.90;;;;;;5033838;28;19915;-80
2023/01/08 03:54:21;;;;;;;;;;;11.20;99.90;;;;;;5033981;28;19909;-79
2023/01/08 03:56:46;;;;;;;;;;;11.20;99.90;;;;;;5032597;28;19910;-79
2023/01/08 03:59:12;;;;;;;;;;;11.20;99.90;;;;;;5032945;28;19954;-79
2023/01/08 04:01:38;;;;;;;;;;;11.20;99.90;;;;;;5033700;28;19909;-81
2023/01/08 04:04:03;;;;;;;;;;;11.20;99.90;;;;;;5033828;28;20072;-80
2023/01/08 04:06:29;;;;;;;;;;;11.10;99.90;;;;;;5032512;28;19913;-79
2023/01/08 04:08:54;;;;;;;;;;;11.00;99.90;;;;;;5032684;28;19916;-79
2023/01/08 04:11:20;;;;;;;;;;;11.10;99.90;;;;;;5032873;28;20063;-79
2023/01/08 04:13:45;;;;;;;;;;;11.10;99.90;;;;;;5033888;28;20383;-80
2023/01/08 04:16:11;;;;;;;;;;;11.00;99.90;;;;;;5034127;28;19963;-79
2023/01/08 04:18:36;;;;;;;;;;;11.00;99.90;;;;;;5032764;28;19909;-79
2023/01/08 04:21:02;;;;;;;;;;;11.00;99.90;;;;;;5033529;28;19933;-81
2023/01/08 04:23:27;;;;;;;;;;;11.00;99.90;;;;;;5034037;28;19909;-79
2023/01/08 04:25:52;;;;;;;;;;;11.00;99.90;;;;;;5032543;28;19944;-79
2023/01/08 04:28:18;;;;;;;;;;;11.00;99.90;;;;;;5033688;28;19910;-80
2023/01/08 04:30:44;;;;;;;;;;;11.00;99.90;;;;;;5033311;28;19976;-79
2023/01/08 04:33:09;;;;;;;;;;;11.00;99.90;;;;;;5033143;28;19914;-79
2023/01/08 04:35:34;;;;;;;;;;;11.00;99.90;;;;;;5032691;28;19999;-79
2023/01/08 04:38:00;;;;;;;;;;;11.00;99.90;;;;;;5033659;28;19920;-80
2023/01/08 04:40:25;;;;;;;;;;;11.00;99.90;;;;;;5032902;28;19936;-79
2023/01/08 04:42:51;;;;;;;;;;;10.90;99.90;;;;;;5098712;22;19947;-83
2023/01/08 04:45:16;;;;;;;;;;;10.90;99.90;;;;;;5093458;28;19908;-82
2023/01/08 04:47:42;;;;;;;;;;;10.90;99.90;;;;;;5093358;28;19936;-82
2023/01/08 04:50:07;;;;;;;;;;;10.90;99.90;;;;;;5091876;28;19908;-82
2023/01/08 04:52:33;;;;;;;;;;;10.80;99.90;;;;;;5093006;28;20012;-83
2023/01/08 04:54:58;;;;;;;;;;;10.90;99.90;;;;;;5074869;28;19908;-82
2023/01/08 04:57:24;;;;;;;;;;;10.90;99.90;;;;;;5075256;28;19941;-83
2023/01/08 04:59:49;;;;;;;;;;;10.90;99.90;;;;;;5093347;28;20003;-81
2023/01/08 05:02:15;;;;;;;;;;;10.90;99.90;;;;;;5074729;28;19916;-82
2023/01/08 05:04:40;;;;;;;;;;;10.90;99.90;;;;;;5074850;28;20312;-82
2023/01/08 05:07:06;;;;;;;;;;;10.80;99.90;;;;;;5074718;28;19959;-82
2023/01/08 05:09:32;;;;;;;;;;;10.90;99.90;;;;;;5093233;28;19908;-81
2023/01/08 05:11:57;;;;;;;;;;;10.80;99.90;;;;;;5074485;28;20388;-82
2023/01/08 05:14:23;;;;;;;;;;;10.80;99.90;;;;;;5074987;28;19962;-81
2023/01/08 05:16:49;;;;;;;;;;;10.80;99.90;;;;;;5074843;28;19908;-81
2023/01/08 05:19:14;;;;;;;;;;;10.90;99.90;;;;;;5093036;28;19931;-81
2023/01/08 05:21:40;;;;;;;;;;;10.90;99.90;;;;;;5074306;28;20049;-83
2023/01/08 05:24:05;;;;;;;;;;;10.90;99.90;;;;;;5077718;28;20289;-83
2023/01/08 05:26:31;;;;;;;;;;;10.90;99.90;;;;;;5078201;28;20591;-81
2023/01/08 05:28:57;;;;;;;;;;;10.90;99.90;;;;;;5096326;28;19994;-82
2023/01/08 05:31:22;;;;;;;;;;;10.90;99.90;;;;;;5078052;28;20007;-83
2023/01/08 05:33:48;;;;;;;;;;;10.90;99.90;;;;;;5077880;28;19915;-82
2023/01/08 05:36:13;;;;;;;;;;;10.80;99.90;;;;;;5078015;28;20356;-82
2023/01/08 05:38:39;;;;;;;;;;;10.80;99.90;;;;;;5077973;28;19909;-82
2023/01/08 05:41:05;;;;;;;;;;;10.80;99.90;;;;;;5077178;28;19951;-82
2023/01/08 05:43:31;;;;;;;;;;;10.80;99.90;;;;;;5096326;28;19958;-83
2023/01/08 05:45:57;;;;;;;;;;;10.80;99.90;;;;;;5079169;28;19908;-82
2023/01/08 05:48:22;;;;;;;;;;;10.80;99.90;;;;;;5080015;28;20048;-81
2023/01/08 05:50:49;;;;;;;;;;;10.80;99.90;;;;;;5095809;28;20391;-80
2023/01/08 05:53:14;;;;;;;;;;;10.80;99.90;;;;;;5077470;28;19958;-81
2023/01/08 05:55:40;;;;;;;;;;;10.80;99.90;;;;;;5077615;28;19908;-81
2023/01/08 05:58:05;;;;;;;;;;;10.80;99.90;;;;;;5077496;28;19958;-82
2023/01/08 06:00:31;;;;;;;;;;;10.80;99.90;;;;;;5077546;28;19930;-81
2023/01/08 06:02:57;;;;;;;;;;;10.80;99.90;;;;;;5076952;28;19957;-81
2023/01/08 06:05:22;;;;;;;;;;;10.70;99.90;;;;;;5077339;28;19912;-81
2023/01/08 06:07:48;;;;;;;;;;;10.80;99.90;;;;;;5095334;28;19912;-82
2023/01/08 06:10:13;;;;;;;;;;;10.70;99.90;;;;;;5077432;28;19984;-82
2023/01/08 06:12:39;;;;;;;;;;;10.70;99.90;;;;;;5076838;28;19908;-82
2023/01/08 06:15:04;;;;;;;;;;;10.70;99.90;;;;;;5077239;28;20324;-83
2023/01/08 06:17:30;;;;;;;;;;;10.70;99.90;;;;;;5077177;28;19914;-82
2023/01/08 06:19:56;;;;;;;;;;;10.70;99.90;;;;;;5077080;28;19908;-81
2023/01/08 06:22:22;;;;;;;;;;;10.70;99.90;;;;;;5076695;28;19912;-81
2023/01/08 06:24:47;;;;;;;;;;;10.70;99.90;;;;;;5076773;28;19908;-81
2023/01/08 06:27:12;;;;;;;;;;;10.70;99.90;;;;;;5076892;28;19945;-83
2023/01/08 06:29:38;;;;;;;;;;;10.70;99.90;;;;;;5076836;28;19908;-82
2023/01/08 06:32:04;;;;;;;;;;;10.80;99.90;;;;;;5076436;28;20008;-81
2023/01/08 06:34:29;;;;;;;;;;;10.80;99.90;;;;;;5076286;28;19908;-80
2023/01/08 06:36:55;;;;;;;;;;;10.80;99.90;;;;;;5076797;28;19999;-82
2023/01/08 06:39:20;;;;;;;;;;;10.90;99.90;;;;;;5094970;28;19930;-81
2023/01/08 06:41:45;;;;;;;;;;;10.90;99.90;;;;;;5076572;28;19916;-82
2023/01/08 06:44:12;;;;;;;;;;;10.90;99.90;;;;;;5076703;28;19947;-82
2023/01/08 06:46:39;;;;;;;;;;;11.00;99.90;;;;;;5076476;28;19965;-81
2023/01/08 06:49:05;;;;;;;;;;;10.90;99.90;;;;;;5096291;28;19907;-80
2023/01/08 06:51:30;;;;;;;;;;;10.50;99.90;;;;;;5095028;28;19915;-80
2023/01/08 06:53:56;;;;;;;;;;;10.20;99.90;;;;;;5077537;28;20353;-81
2023/01/08 06:56:21;;;;;;;;;;;9.80;99.90;;;;;;5077030;28;20123;-80
2023/01/08 06:58:47;;;;;;;;;;;9.60;99.90;;;;;;5076500;28;20036;-81
2023/01/08 07:01:14;;;;;;;;;;;9.50;99.90;;;;;;5094221;28;20361;-81
2023/01/08 07:03:39;;;;;;;;;;;9.30;99.90;;;;;;5076659;28;19908;-81
2023/01/08 07:06:05;;;;;;;;;;;9.20;99.90;;;;;;5076213;28;20357;-81
2023/01/08 07:08:31;;;;;;;;;;;9.10;99.90;;;;;;5076478;28;20002;-81
2023/01/08 07:11:00;;;;;;;;;;;9.00;99.90;;;;;;5094452;28;19955;-80
2023/01/08 07:13:25;;;;;;;;;;;9.00;99.90;;;;;;5076696;28;19908;-81
2023/01/08 07:15:51;;;;;;;;;;;8.90;99.90;;;;;;5076310;28;19909;-81
2023/01/08 07:18:16;;;;;;;;;;;8.90;99.90;;;;;;5094048;28;19946;-81
2023/01/08 07:20:42;;;;;;;;;;;8.90;99.90;;;;;;5075924;28;19979;-81
2023/01/08 07:23:09;;;;;;;;;;;8.90;99.90;;;;;;5075412;28;19909;-81
2023/01/08 07:25:34;;;;;;;;;;;8.90;99.90;;;;;;5075919;28;20274;-82
2023/01/08 07:28:00;;;;;;;;;;;9.00;99.90;;;;;;5094162;28;19919;-82
2023/01/08 07:30:26;;;;;;;;;;;8.90;99.90;;;;;;5075893;28;19908;-81
2023/01/08 07:32:52;;;;;;;;;;;9.00;99.90;;;;;;5106106;28;19915;-81
2023/01/08 07:35:17;;;;;;;;;;;9.10;99.90;;;;;;5086281;28;20268;-83
2023/01/08 07:37:43;;;;;;;;;;;9.10;99.90;;;;;;5080931;28;19954;-84
2023/01/08 07:40:09;;;;;;;;;;;9.20;99.90;;;;;;5082453;28;19943;-84
2023/01/08 07:42:35;;;;;;;;;;;9.30;99.90;;;;;;5081037;28;19931;-82
2023/01/08 07:45:00;;;;;;;;;;;9.30;99.90;;;;;;5104799;28;19908;-80
2023/01/08 07:47:26;;;;;;;;;;;9.40;99.90;;;;;;5104630;28;19959;-81
2023/01/08 07:49:51;;;;;;;;;;;9.40;99.90;;;;;;5104472;28;19909;-82
2023/01/08 07:52:17;;;;;;;;;;;9.50;99.90;;;;;;5087139;28;19934;-81
2023/01/08 07:54:42;;;;;;;;;;;9.50;99.90;;;;;;5085292;28;19912;-82
2023/01/08 07:57:07;;;;;;;;;;;9.50;99.90;;;;;;5097712;28;20390;-83
2023/01/08 07:59:33;;;;;;;;;;;9.50;99.90;;;;;;5096956;28;19965;-83
2023/01/08 08:01:58;;;;;;;;;;;9.60;99.90;;;;;;5078259;28;20003;-83
2023/01/08 08:04:24;;;;;;;;;;;9.70;99.90;;;;;;5096544;28;19917;-83
2023/01/08 08:06:50;;;;;;;;;;;9.70;99.90;;;;;;5096812;28;19919;-82
2023/01/08 08:09:15;;;;;;;;;;;9.70;99.90;;;;;;5096777;28;20034;-82
2023/01/08 08:11:41;;;;;;;;;;;9.80;99.90;;;;;;5077876;28;19908;-82
2023/01/08 08:14:06;;;;;;;;;;;9.80;99.90;;;;;;5078731;28;19957;-82
2023/01/08 08:16:32;;;;;;;;;;;9.80;99.90;;;;;;5078611;28;19913;-82
2023/01/08 08:18:58;;;;;;;;;;;9.80;99.90;;;;;;5097220;28;19908;-82
2023/01/08 08:21:23;;;;;;;;;;;9.80;99.90;;;;;;5096099;28;20402;-82
2023/01/08 08:23:49;;;;;;;;;;;9.80;99.90;;;;;;5097036;28;19912;-82
2023/01/08 08:26:14;;;;;;;;;;;9.80;99.90;;;;;;5078352;28;19908;-82
2023/01/08 08:28:40;;;;;;;;;;;9.80;99.90;;;;;;5096942;28;19907;-82
2023/01/08 08:31:05;;;;;;;;;;;9.80;99.90;;;;;;5078208;28;19996;-81
2023/01/08 08:33:31;;;;;;;;;;;9.80;99.90;;;;;;5078270;28;19916;-83
2023/01/08 08:35:56;;;;;;;;;;;9.70;99.90;;;;;;5078439;28;19914;-83
2023/01/08 08:38:22;;;;;;;;;;;9.60;99.90;;;;;;5077959;28;19967;-82
2023/01/08 08:40:47;;;;;;;;;;;9.50;99.90;;;;;;5078790;28;20280;-82
2023/01/08 08:43:13;;;;;;;;;;;9.50;99.90;;;;;;5078238;28;19916;-82
2023/01/08 08:45:38;;;;;;;;;;;9.50;99.90;;;;;;5096610;28;19908;-82
2023/01/08 08:48:04;;;;;;;;;;;9.50;99.90;;;;;;5077524;28;19941;-82
2023/01/08 08:50:30;;;;;;;;;;;9.50;99.90;;;;;;5078002;28;19908;-82
2023/01/08 08:52:59;;;;;;;;;;;9.50;99.90;;;;;;5096102;28;19908;-83
2023/01/08 08:55:25;;;;;;;;;;;9.50;99.90;;;;;;5096095;28;19908;-82
2023/01/08 08:57:50;;;;;;;;;;;9.50;99.90;;;;;;5097511;28;19916;-81
2023/01/08 09:00:16;;;;;;;;;;;9.40;99.90;;;;;;5100105;28;19908;-82
2023/01/08 09:02:41;;;;;;;;;;;9.40;99.90;;;;;;5080900;28;19930;-82
2023/01/08 09:05:07;;;;;;;;;;;9.30;99.90;;;;;;5099738;28;20311;-82
2023/01/08 09:07:32;;;;;;;;;;;9.30;99.90;;;;;;5081927;28;19916;-81
2023/01/08 09:09:58;;;;;;;;;;;9.20;99.90;;;;;;5082361;28;19915;-82
2023/01/08 09:12:23;;;;;;;;;;;9.30;99.90;;;;;;5101068;28;19947;-81
2023/01/08 09:14:50;;;;;;;;;;;9.20;99.90;;;;;;5082962;28;20010;-81
2023/01/08 09:17:16;;;;;;;;;;;9.20;99.90;;;;;;5083504;28;19966;-81
2023/01/08 09:19:41;;;;;;;;;;;9.20;99.90;;;;;;5100889;28;19908;-81
2023/01/08 09:22:07;;;;;;;;;;;9.20;99.90;;;;;;5100367;28;19908;-81
2023/01/08 09:24:32;;;;;;;;;;;9.30;99.90;;;;;;5082224;28;20266;-81
2023/01/08 09:26:58;;;;;;;;;;;9.30;99.90;;;;;;5100085;28;19919;-81
2023/01/08 09:29:24;;;;;;;;;;;9.40;99.90;;;;;;5081861;28;19958;-80
2023/01/08 09:31:49;;;;;;;;;;;9.60;99.90;;;;;;5080689;28;19915;-82
2023/01/08 09:34:15;;;;;;;;;;;9.90;99.90;;;;;;5081354;28;19912;-83
2023/01/08 09:36:40;;;;;;;;;;;10.10;99.90;;;;;;5081212;28;19994;-80
2023/01/08 09:39:06;;;;;;;;;;;10.30;99.90;;;;;;5099825;28;19908;-81
2023/01/08 09:41:33;;;;;;;;;;;10.40;99.90;;;;;;5098646;28;20020;-83
2023/01/08 09:43:59;;;;;;;;;;;10.60;99.90;;;;;;5099323;28;19908;-82
2023/01/08 09:46:26;;;;;;;;;;;10.80;99.90;;;;;;5080694;28;19919;-81
2023/01/08 09:48:53;;;;;;;;;;;10.80;99.90;;;;;;5080277;28;20296;-81
2023/01/08 09:51:19;;;;;;;;;;;10.90;99.90;;;;;;5080558;28;20335;-82
2023/01/08 09:53:47;;;;;;;;;;;10.90;99.90;;;;;;5081100;28;20011;-81
2023/01/08 09:56:14;;;;;;;;;;;10.90;99.90;;;;;;5080592;28;20003;-83
2023/01/08 09:58:43;;;;;;;;;;;10.90;99.90;;;;;;5098763;28;19914;-80
2023/01/08 10:01:11;;;;;;;;;;;10.90;99.90;;;;;;5079977;28;19908;-81
2023/01/08 10:03:42;;;;;;;;;;;10.90;99.90;;;;;;5098905;28;20003;-83
2023/01/08 10:06:08;;;;;;;;;;;10.90;99.90;;;;;;5080349;28;19908;-81
2023/01/08 10:08:34;;;;;;;;;;;10.90;99.90;;;;;;5079642;28;19957;-82
2023/01/08 10:10:59;;;;;;;;;;;10.90;99.90;;;;;;5079456;28;19946;-82
2023/01/08 10:13:25;;;;;;;;;;;10.90;99.90;;;;;;5080329;28;19908;-80
2023/01/08 10:15:51;;;;;;;;;;;11.00;99.90;;;;;;5079996;28;19915;-80
2023/01/08 10:18:24;;;;;;;;;;;11.10;99.90;;;;;;5079592;28;20426;-82
2023/01/08 10:20:50;;;;;;;;;;;11.30;99.90;;;;;;5078512;28;19908;-82
2023/01/08 10:23:16;;;;;;;;;;;11.50;99.90;;;;;;5078114;28;19908;-82
2023/01/08 10:25:46;;;;;;;;;;;11.50;99.90;;;;;;5078276;28;19908;-82
2023/01/08 10:28:18;;;;;;;;;;;11.60;99.90;;;;;;5079567;28;20297;-83
2023/01/08 10:30:43;;;;;;;;;;;11.70;99.90;;;;;;5079177;28;19915;-82
2023/01/08 10:33:10;;;;;;;;;;;11.70;99.90;;;;;;5097058;28;20304;-82
2023/01/08 10:35:39;;;;;;;;;;;11.90;99.90;;;;;;5078776;28;19912;-82
2023/01/08 10:38:05;;;;;;;;;;;12.10;99.90;;;;;;5097530;28;19908;-81
2023/01/08 10:40:36;;;;;;;;;;;12.30;99.90;;;;;;5097999;28;19908;-83
2023/01/08 10:43:07;;;;;;;;;;;12.30;99.90;;;;;;5079370;28;20400;-81
2023/01/08 10:45:33;;;;;;;;;;;12.40;99.90;;;;;;5092435;28;19923;-82
2023/01/08 10:48:00;;;;;;;;;;;12.50;99.90;;;;;;5083322;28;20284;-81
2023/01/08 10:50:31;;;;;;;;;;;12.70;99.90;;;;;;5075015;28;19954;-84
2023/01/08 10:53:19;;;;;;;;;;;12.80;99.90;;;;;;5078020;28;20295;-82
2023/01/08 10:55:55;;;;;;;;;;;12.90;99.90;;;;;;5078241;28;19987;-84
2023/01/08 10:58:21;;;;;;;;;;;13.00;99.90;;;;;;5096981;28;20044;-83
2023/01/08 11:00:46;;;;;;;;;;;13.20;99.90;;;;;;5077590;28;20381;-82
2023/01/08 11:03:29;;;;;;;;;;;13.30;99.90;;;;;;5076612;28;19948;-84
2023/01/08 11:05:55;;;;;;;;;;;13.40;99.90;;;;;;5096110;28;19958;-82
2023/01/08 11:08:21;;;;;;;;;;;13.60;99.90;;;;;;5077537;28;20289;-81
2023/01/08 11:10:53;;;;;;;;;;;13.90;99.90;;;;;;5096670;28;19923;-84
2023/01/08 11:13:19;;;;;;;;;;;14.00;99.90;;;;;;5096381;28;19914;-81
2023/01/08 11:15:45;;;;;;;;;;;14.20;99.90;;;;;;5077936;28;20393;-84
2023/01/08 11:18:24;;;;;;;;;;;14.40;99.90;;;;;;5074511;28;19940;-84
2023/01/08 11:20:50;;;;;;;;;;;14.50;99.90;;;;;;5079569;28;19908;-84
2023/01/08 11:23:22;;;;;;;;;;;14.70;99.90;;;;;;5057417;28;19999;-82
2023/01/08 11:26:07;;;;;;;;;;;14.70;99.90;;;;;;5057616;28;20362;-84
2023/01/08 11:28:50;;;;;;;;;;;14.30;99.90;;;;;;5057166;28;19946;-83
2023/01/08 11:31:32;;;;;;;;;;;14.00;99.90;;;;;;5056954;28;19966;-84
2023/01/08 11:34:01;;;;;;;;;;;13.80;99.90;;;;;;5094408;28;19961;-82
2023/01/08 11:36:33;;;;;;;;;;;13.80;99.90;;;;;;5076493;28;19914;-82
2023/01/08 11:38:59;;;;;;;;;;;13.70;99.90;;;;;;5095526;28;19915;-81
2023/01/08 11:41:32;;;;;;;;;;;13.60;99.90;;;;;;5093632;28;19912;-84
2023/01/08 11:43:57;;;;;;;;;;;13.50;99.90;;;;;;5077032;28;19908;-84
2023/01/08 11:46:35;;;;;;;;;;;13.50;99.90;;;;;;5095441;28;20049;-84
2023/01/08 11:49:20;;;;;;;;;;;13.40;99.90;;;;;;5076810;28;19953;-83
2023/01/08 11:51:55;;;;;;;;;;;13.70;99.90;;;;;;5093068;28;19908;-84
2023/01/08 11:54:35;;;;;;;;;;;13.80;99.90;;;;;;5095048;28;19908;-82
2023/01/08 11:57:10;;;;;;;;;;;13.80;99.90;;;;;;5077071;28;19908;-85
2023/01/08 11:59:38;;;;;;;;;;;14.40;99.90;;;;;;5096260;28;19999;-84
2023/01/08 12:02:24;;;;;;;;;;;16.10;99.90;;;;;;5076566;28;20014;-84
2023/01/08 12:04:53;;;;;;;;;;;17.00;99.90;;;;;;5066942;28;20049;-84
2023/01/08 12:07:23;;;;;;;;;;;17.00;99.90;;;;;;5094424;28;19961;-84
2023/01/08 12:09:51;;;;;;;;;;;15.90;99.90;;;;;;5076694;28;20027;-82
2023/01/08 12:12:35;;;;;;;;;;;15.30;99.90;;;;;;5076464;28;19995;-82
2023/01/08 12:15:04;;;;;;;;;;;14.90;99.90;;;;;;5094607;28;19915;-83
2023/01/08 12:18:08;;;;;;;;;;;15.00;99.90;;;;;;5076388;28;19908;-82
2023/01/08 12:20:33;;;;;;;;;;;15.90;99.90;;;;;;5014876;28;19937;-82
2023/01/08 12:23:14;;;;;;;;;;;16.10;99.90;;;;;;5014988;28;20383;-84
2023/01/08 12:25:58;;;;;;;;;;;15.80;99.90;;;;;;5049806;28;20385;-84
2023/01/08 12:28:38;;;;;;;;;;;15.50;99.90;;;;;;5094730;28;19962;-82
2023/01/08 12:31:07;;;;;;;;;;;15.10;99.90;;;;;;5075763;28;20457;-82
2023/01/08 12:33:59;;;;;;;;;;;14.70;99.90;;;;;;5075023;28;19912;-81
2023/01/08 12:36:28;;;;;;;;;;;14.40;99.90;;;;;;5090682;28;20432;-81
2023/01/08 12:38:58;;;;;;;;;;;14.20;99.90;;;;;;5094719;28;19908;-81
2023/01/08 12:41:23;;;;;;;;;;;14.00;99.90;;;;;;5075814;28;19939;-80
2023/01/08 12:43:52;;;;;;;;;;;13.90;99.90;;;;;;5076721;28;19908;-82
2023/01/08 12:46:19;;;;;;;;;;;13.60;99.90;;;;;;5076640;28;19908;-81
2023/01/08 12:48:46;;;;;;;;;;;13.40;99.90;;;;;;5094725;28;20296;-82
2023/01/08 12:51:18;;;;;;;;;;;13.40;99.90;;;;;;5093994;28;19908;-83
2023/01/08 12:54:02;;;;;;;;;;;13.50;99.90;;;;;;5055464;28;19999;-82
2023/01/08 12:56:32;;;;;;;;;;;13.60;99.90;;;;;;5055203;28;19913;-81
2023/01/08 12:59:16;;;;;;;;;;;13.50;99.90;;;;;;5055663;28;19932;-83
2023/01/08 13:01:58;;;;;;;;;;;13.30;99.90;;;;;;5073007;28;20502;-82
2023/01/08 13:04:24;;;;;;;;;;;13.20;99.90;;;;;;5055152;28;20511;-82
2023/01/08 13:06:50;;;;;;;;;;;13.50;99.90;;;;;;5054781;28;19920;-81
2023/01/08 13:09:24;;;;;;;;;;;15.20;99.90;;;;;;5055290;28;19908;-83
2023/01/08 13:11:51;;;;;;;;;;;17.10;99.90;;;;;;5054816;28;19908;-83
2023/01/08 13:14:16;;;;;;;;;;;16.30;99.90;;;;;;5054973;28;19908;-81
2023/01/08 13:16:44;;;;;;;;;;;16.50;99.90;;;;;;5072899;28;20011;-82
2023/01/08 13:19:26;;;;;;;;;;;16.80;99.90;;;;;;5054763;28;19962;-81
2023/01/08 13:21:56;;;;;;;;;;;16.20;99.90;;;;;;5054399;28;19918;-81
2023/01/08 13:24:22;;;;;;;;;;;15.50;99.90;;;;;;5054749;28;19912;-83
2023/01/08 13:26:47;;;;;;;;;;;15.20;99.90;;;;;;5054725;28;19961;-83
2023/01/08 13:29:25;;;;;;;;;;;14.80;99.90;;;;;;5054697;28;20353;-81
2023/01/08 13:31:51;;;;;;;;;;;14.40;99.90;;;;;;5072037;28;19947;-83
2023/01/08 13:34:36;;;;;;;;;;;14.30;99.90;;;;;;5078877;28;19912;-83
2023/01/08 13:37:01;;;;;;;;;;;14.00;99.90;;;;;;5076192;28;19934;-83
2023/01/08 13:39:31;;;;;;;;;;;13.80;99.90;;;;;;5054316;28;20003;-81
2023/01/08 13:41:59;;;;;;;;;;;13.70;99.90;;;;;;5054167;28;20259;-83
2023/01/08 13:44:24;;;;;;;;;;;13.50;99.90;;;;;;5056382;28;20010;-83
2023/01/08 13:46:54;;;;;;;;;;;13.60;99.90;;;;;;5057835;28;19947;-82
2023/01/08 13:49:26;;;;;;;;;;;14.00;99.90;;;;;;5057684;28;19908;-81
2023/01/08 13:51:51;;;;;;;;;;;14.20;99.90;;;;;;5057390;28;19913;-82
2023/01/08 13:54:21;;;;;;;;;;;14.10;99.90;;;;;;5075396;28;19923;-82
2023/01/08 13:56:50;;;;;;;;;;;14.10;99.90;;;;;;5075569;28;20387;-82
2023/01/08 13:59:29;;;;;;;;;;;13.70;99.90;;;;;;5057370;28;20407;-80
2023/01/08 14:01:55;;;;;;;;;;;13.70;99.90;;;;;;5056938;28;20281;-83
2023/01/08 14:04:21;;;;;;;;;;;13.50;99.90;;;;;;5057253;28;19912;-82
2023/01/08 14:06:47;;;;;;;;;;;13.40;99.90;;;;;;5075497;28;20373;-82
2023/01/08 14:09:23;;;;;;;;;;;13.20;99.90;;;;;;5057283;28;19934;-81
2023/01/08 14:11:51;;;;;;;;;;;13.00;99.90;;;;;;5075061;28;19914;-81
2023/01/08 14:14:17;;;;;;;;;;;12.80;99.90;;;;;;5080615;28;20365;-81
2023/01/08 14:16:43;;;;;;;;;;;12.80;99.90;;;;;;5075963;28;19912;-81
2023/01/08 14:19:15;;;;;;;;;;;12.60;99.90;;;;;;5077353;28;20258;-82
2023/01/08 14:21:44;;;;;;;;;;;12.30;99.90;;;;;;5095113;28;20407;-80
2023/01/08 14:24:13;;;;;;;;;;;12.30;99.90;;;;;;5095131;28;19958;-82